createdAt,value
2019-02-25T00:00:16.812Z,50.00
2019-02-25T00:02:45.363Z,44.80
2019-02-25T00:05:14.203Z,45.40
2019-02-25T00:07:42.923Z,42.83
2019-02-25T00:10:11.603Z,47.87
2019-02-25T00:12:40.104Z,54.17
2019-02-25T00:15:08.724Z,59.33
2019-02-25T00:17:37.387Z,49.57
2019-02-25T00:20:06.427Z,51.87
2019-02-25T00:22:34.970Z,59.03
2019-02-25T00:25:03.535Z,61.53
2019-02-25T00:27:32.307Z,51.45
2019-02-25T00:30:00.786Z,55.17
2019-02-25T00:32:29.268Z,56.03
2019-02-25T00:34:58.399Z,49.60
2019-02-25T00:37:27.219Z,46.90
2019-02-25T00:39:56.367Z,50.37
2019-02-25T00:42:25.914Z,48.83
2019-02-25T00:44:55.043Z,51.97
2019-02-25T00:47:23.567Z,45.80
2019-02-25T00:49:52.068Z,51.35
2019-02-25T00:52:20.559Z,46.70
2019-02-25T00:54:49.617Z,52.77
2019-02-25T00:57:18.759Z,56.63
2019-02-25T00:59:47.422Z,42.33
2019-02-25T01:02:16.294Z,51.07
2019-02-25T01:04:45.063Z,47.43
2019-02-25T01:10:45.527Z,40.73
2019-02-25T01:13:14.001Z,49.30
2019-02-25T01:15:42.730Z,46.58
2019-02-25T01:19:14.171Z,45.28
2019-02-25T01:21:42.675Z,49.30
2019-02-25T01:24:11.158Z,50.20
2019-02-25T01:26:39.627Z,47.80
2019-02-25T01:29:08.419Z,47.43
2019-02-25T01:31:36.982Z,53.13
2019-02-25T01:34:05.450Z,46.40
2019-02-25T01:36:34.298Z,52.80
2019-02-25T01:39:02.950Z,57.37
2019-02-25T01:41:32.222Z,53.90
2019-02-25T01:44:01.117Z,57.13
2019-02-25T01:46:29.996Z,64.63
2019-02-25T01:48:58.639Z,69.93
2019-02-25T01:51:27.708Z,62.77
2019-02-25T01:53:56.620Z,60.93
2019-02-25T01:56:25.382Z,61.17
2019-02-25T01:58:53.994Z,58.37
2019-02-25T02:01:22.503Z,59.13
2019-02-25T02:03:51.306Z,65.10
2019-02-25T02:06:20.070Z,60.87
2019-02-25T02:08:49.678Z,59.20
2019-02-25T02:11:18.307Z,55.03
2019-02-25T02:13:46.771Z,58.80
2019-02-25T02:16:15.354Z,59.57
2019-02-25T02:18:43.870Z,61.20
2019-02-25T02:21:12.646Z,63.35
2019-02-25T02:23:41.932Z,61.70
2019-02-25T02:26:10.438Z,57.70
2019-02-25T02:28:39.234Z,64.97
2019-02-25T02:31:08.239Z,58.30
2019-02-25T02:33:37.726Z,58.20
2019-02-25T02:36:06.495Z,54.47
2019-02-25T02:38:35.686Z,56.13
2019-02-25T02:41:05.286Z,55.17
2019-02-25T02:43:33.767Z,60.10
2019-02-25T02:46:23.918Z,54.27
2019-02-25T02:48:56.282Z,48.57
2019-02-25T02:51:25.050Z,57.57
2019-02-25T02:53:53.547Z,57.33
2019-02-25T02:56:22.390Z,54.90
2019-02-25T02:58:50.875Z,58.00
2019-02-25T03:01:19.343Z,57.23
2019-02-25T03:03:48.476Z,57.53
2019-02-25T03:06:17.601Z,61.70
2019-02-25T03:08:46.509Z,56.07
2019-02-25T03:11:15.411Z,68.03
2019-02-25T03:13:43.867Z,66.33
2019-02-25T03:16:12.334Z,56.15
2019-02-25T03:18:41.217Z,62.33
2019-02-25T03:21:09.689Z,54.13
2019-02-25T03:23:38.482Z,55.30
2019-02-25T03:26:06.967Z,53.30
2019-02-25T03:28:35.489Z,52.73
2019-02-25T03:31:04.863Z,52.33
2019-02-25T03:33:33.328Z,49.80
2019-02-25T03:36:02.631Z,53.67
2019-02-25T03:38:31.102Z,56.20
2019-02-25T03:41:00.013Z,52.77
2019-02-25T03:43:28.873Z,67.97
2019-02-25T03:45:57.753Z,68.87
2019-02-25T03:48:26.685Z,68.13
2019-02-25T03:50:55.469Z,73.90
2019-02-25T03:53:24.003Z,63.63
2019-02-25T03:55:53.291Z,55.97
2019-02-25T03:58:21.877Z,60.50
2019-02-25T04:00:50.985Z,61.93
2019-02-25T04:03:19.481Z,53.43
2019-02-25T04:05:48.311Z,58.37
2019-02-25T04:08:17.677Z,75.40
2019-02-25T04:10:46.576Z,70.28
2019-02-25T04:13:15.049Z,65.53
2019-02-25T04:15:44.819Z,74.33
2019-02-25T04:18:13.732Z,75.60
2019-02-25T04:20:42.234Z,84.97
2019-02-25T04:23:10.739Z,85.47
2019-02-25T04:25:39.582Z,83.83
2019-02-25T04:28:08.075Z,79.60
2019-02-25T04:30:36.879Z,89.20
2019-02-25T04:33:05.522Z,79.73
2019-02-25T04:35:34.193Z,87.00
2019-02-25T04:38:03.145Z,84.73
2019-02-25T04:40:31.569Z,71.40
2019-02-25T04:43:00.334Z,74.57
2019-02-25T04:45:28.825Z,77.70
2019-02-25T04:47:57.757Z,72.20
2019-02-25T04:50:26.329Z,74.00
2019-02-25T04:52:54.790Z,69.30
2019-02-25T04:55:23.533Z,77.35
2019-02-25T04:57:52.105Z,74.70
2019-02-25T05:00:20.663Z,75.00
2019-02-25T05:02:49.293Z,73.33
2019-02-25T05:05:17.946Z,88.40
2019-02-25T05:07:46.417Z,88.50
2019-02-25T05:10:15.161Z,98.33
2019-02-25T05:12:47.855Z,105.03
2019-02-25T05:15:16.529Z,97.67
2019-02-25T05:17:45.231Z,89.53
2019-02-25T05:20:13.870Z,86.70
2019-02-25T05:22:42.929Z,90.73
2019-02-25T05:25:11.567Z,91.43
2019-02-25T05:27:40.297Z,109.13
2019-02-25T05:30:10.445Z,98.50
2019-02-25T05:32:38.989Z,101.07
2019-02-25T05:35:08.682Z,100.20
2019-02-25T05:37:37.330Z,106.93
2019-02-25T05:40:08.509Z,92.43
2019-02-25T05:42:37.015Z,106.37
2019-02-25T05:45:05.968Z,87.07
2019-02-25T05:47:34.549Z,91.70
2019-02-25T05:50:03.138Z,98.20
2019-02-25T05:52:31.640Z,84.20
2019-02-25T05:55:00.297Z,100.57
2019-02-25T05:57:28.753Z,90.90
2019-02-25T05:59:57.265Z,89.33
2019-02-25T06:02:26.381Z,88.63
2019-02-25T06:04:54.864Z,97.40
2019-02-25T06:07:23.478Z,101.30
2019-02-25T06:09:52.217Z,100.53
2019-02-25T06:12:20.668Z,89.03
2019-02-25T06:14:50.108Z,103.20
2019-02-25T06:17:18.684Z,91.70
2019-02-25T06:19:47.196Z,102.30
2019-02-25T06:22:15.740Z,95.43
2019-02-25T06:24:44.227Z,104.27
2019-02-25T06:27:13.018Z,101.38
2019-02-25T06:29:41.540Z,95.47
2019-02-25T06:32:10.064Z,88.80
2019-02-25T06:34:38.657Z,88.37
2019-02-25T06:37:07.454Z,80.30
2019-02-25T06:39:36.141Z,78.97
2019-02-25T06:42:04.973Z,81.63
2019-02-25T06:44:33.508Z,86.85
2019-02-25T06:47:02.020Z,82.90
2019-02-25T06:49:30.512Z,67.00
2019-02-25T06:52:00.456Z,69.93
2019-02-25T06:54:29.268Z,73.57
2019-02-25T06:56:57.752Z,78.33
2019-02-25T06:59:26.343Z,74.30
2019-02-25T07:01:54.828Z,69.93
2019-02-25T07:04:30.953Z,75.73
2019-02-25T07:07:04.509Z,82.13
2019-02-25T07:09:41.145Z,74.57
2019-02-25T07:12:13.928Z,69.93
2019-02-25T07:14:53.522Z,68.90
2019-02-25T07:17:27.288Z,73.20
2019-02-25T07:20:08.911Z,81.20
2019-02-25T07:22:46.536Z,72.17
2019-02-25T07:27:23.977Z,58.17
2019-02-25T07:32:01.212Z,55.33
2019-02-25T07:34:38.795Z,51.40
2019-02-25T07:37:18.285Z,57.60
2019-02-25T07:39:56.996Z,51.50
2019-02-25T07:42:30.543Z,51.13
2019-02-25T07:45:10.383Z,49.33
2019-02-25T07:47:44.331Z,47.53
2019-02-25T07:50:18.027Z,54.23
2019-02-25T07:52:56.003Z,47.93
2019-02-25T07:57:31.239Z,50.65
2019-02-25T08:00:11.168Z,47.77
2019-02-25T08:02:43.947Z,56.47
2019-02-25T08:05:20.423Z,53.87
2019-02-25T08:08:04.316Z,51.90
2019-02-25T08:10:46.316Z,49.73
2019-02-25T08:13:21.807Z,46.70
2019-02-25T08:15:54.485Z,42.70
2019-02-25T08:18:27.236Z,45.27
2019-02-25T08:21:01.798Z,50.30
2019-02-25T08:23:34.555Z,43.63
2019-02-25T08:28:11.087Z,46.73
2019-02-25T08:30:44.747Z,44.43
2019-02-25T08:33:20.422Z,46.33
2019-02-25T08:36:37.654Z,46.47
2019-02-25T08:39:13.499Z,40.17
2019-02-25T08:41:47.372Z,41.50
2019-02-25T08:44:20.965Z,42.13
2019-02-25T08:47:10.056Z,42.90
2019-02-25T08:49:43.999Z,38.20
2019-02-25T08:52:12.587Z,39.57
2019-02-25T08:54:41.087Z,37.42
2019-02-25T08:57:09.771Z,44.20
2019-02-25T08:59:38.735Z,43.17
2019-02-25T09:02:07.452Z,38.63
2019-02-25T09:04:36.519Z,35.27
2019-02-25T09:07:05.067Z,43.05
2019-02-25T09:09:33.888Z,34.20
2019-02-25T09:12:02.696Z,36.43
2019-02-25T09:14:31.174Z,38.63
2019-02-25T09:16:59.701Z,35.48
2019-02-25T09:19:28.291Z,35.00
2019-02-25T09:21:57.011Z,40.90
2019-02-25T09:24:25.583Z,28.87
2019-02-25T09:26:54.171Z,30.70
2019-02-25T09:29:22.723Z,36.53
2019-02-25T09:31:51.676Z,31.97
2019-02-25T09:34:20.379Z,28.10
2019-02-25T09:36:49.003Z,32.67
2019-02-25T09:39:17.566Z,29.10
2019-02-25T09:41:46.315Z,31.55
2019-02-25T09:44:14.835Z,29.63
2019-02-25T09:46:43.425Z,35.77
2019-02-25T09:49:12.039Z,30.60
2019-02-25T09:51:40.606Z,34.80
2019-02-25T09:54:09.298Z,35.83
2019-02-25T09:56:37.775Z,35.97
2019-02-25T09:59:06.408Z,30.32
2019-02-25T10:01:34.878Z,29.47
2019-02-25T10:04:03.386Z,27.77
2019-02-25T10:06:32.135Z,26.47
2019-02-25T10:09:00.606Z,26.67
2019-02-25T10:11:29.350Z,31.63
2019-02-25T10:13:57.851Z,29.17
2019-02-25T10:16:26.326Z,25.73
2019-02-25T10:18:54.838Z,26.23
2019-02-25T10:21:23.312Z,30.03
2019-02-25T10:23:51.802Z,23.37
2019-02-25T10:26:20.346Z,25.10
2019-02-25T10:28:49.118Z,24.67
2019-02-25T10:31:17.619Z,22.80
2019-02-25T10:33:46.117Z,23.93
2019-02-25T10:36:14.858Z,22.80
2019-02-25T10:38:43.338Z,22.10
2019-02-25T10:41:12.206Z,28.10
2019-02-25T10:43:40.718Z,25.20
2019-02-25T10:46:11.167Z,24.87
2019-02-25T10:48:37.786Z,23.80
2019-02-25T10:51:07.060Z,22.77
2019-02-25T10:53:35.111Z,22.82
2019-02-25T10:56:09.354Z,24.85
2019-02-25T10:58:37.829Z,24.30
2019-02-25T11:01:08.545Z,28.43
2019-02-25T11:03:34.986Z,26.00
2019-02-25T11:06:03.518Z,22.58
2019-02-25T11:08:32.046Z,24.85
2019-02-25T11:11:10.250Z,24.40
2019-02-25T11:13:39.014Z,24.52
2019-02-25T11:16:07.505Z,26.10
2019-02-25T11:18:36.030Z,22.75
2019-02-25T11:22:08.482Z,22.62
2019-02-25T11:24:36.086Z,26.27
2019-02-25T11:27:05.183Z,24.43
2019-02-25T11:29:33.558Z,25.93
2019-02-25T11:32:02.046Z,23.65
2019-02-25T11:34:31.639Z,23.22
2019-02-25T11:36:59.547Z,18.77
2019-02-25T11:39:29.997Z,17.92
2019-02-25T11:41:56.270Z,19.60
2019-02-25T11:44:26.158Z,21.27
2019-02-25T11:46:53.446Z,20.00
2019-02-25T11:49:22.582Z,23.52
2019-02-25T11:51:51.179Z,19.67
2019-02-25T11:54:19.723Z,20.30
2019-02-25T11:56:48.648Z,21.40
2019-02-25T11:59:17.347Z,21.23
2019-02-25T12:01:45.974Z,20.82
2019-02-25T12:04:14.721Z,21.27
2019-02-25T12:06:43.270Z,20.08
2019-02-25T12:09:11.838Z,16.93
2019-02-25T12:11:40.417Z,20.47
2019-02-25T12:14:09.002Z,20.90
2019-02-25T12:16:37.590Z,18.73
2019-02-25T12:19:06.893Z,22.43
2019-02-25T12:21:35.438Z,18.52
2019-02-25T12:24:04.913Z,16.80
2019-02-25T12:26:33.433Z,19.48
2019-02-25T12:29:10.649Z,15.15
2019-02-25T12:31:31.433Z,17.17
2019-02-25T12:34:00.232Z,17.98
2019-02-25T12:36:29.162Z,20.90
2019-02-25T12:38:57.681Z,20.10
2019-02-25T12:41:27.364Z,19.43
2019-02-25T12:43:54.873Z,16.20
2019-02-25T12:46:23.351Z,14.35
2019-02-25T12:48:51.938Z,18.48
2019-02-25T12:51:20.497Z,19.90
2019-02-25T12:53:49.349Z,15.90
2019-02-25T12:56:17.853Z,18.37
2019-02-25T12:58:47.129Z,18.27
2019-02-25T13:01:15.886Z,16.30
2019-02-25T13:03:44.542Z,19.70
2019-02-25T13:06:13.415Z,19.30
2019-02-25T13:08:41.899Z,19.57
2019-02-25T13:11:10.921Z,18.57
2019-02-25T13:13:39.469Z,20.15
2019-02-25T13:16:08.073Z,18.92
2019-02-25T13:18:36.921Z,17.73
2019-02-25T13:21:06.204Z,18.02
2019-02-25T13:23:34.853Z,20.53
2019-02-25T13:26:07.414Z,20.62
2019-02-25T13:28:33.560Z,19.95
2019-02-25T13:31:03.344Z,18.92
2019-02-25T13:33:32.361Z,21.68
2019-02-25T13:36:00.929Z,18.23
2019-02-25T13:38:29.733Z,20.95
2019-02-25T13:40:58.317Z,19.37
2019-02-25T13:43:27.518Z,19.17
2019-02-25T13:45:55.493Z,19.75
2019-02-25T13:48:24.377Z,19.57
2019-02-25T13:50:53.402Z,18.70
2019-02-25T13:53:22.317Z,18.60
2019-02-25T13:55:51.159Z,22.58
2019-02-25T13:58:19.809Z,19.25
2019-02-25T14:00:48.729Z,26.80
2019-02-25T14:03:17.330Z,23.12
2019-02-25T14:05:46.333Z,23.10
2019-02-25T14:08:15.005Z,20.00
2019-02-25T14:10:43.901Z,23.75
2019-02-25T14:13:12.577Z,23.10
2019-02-25T14:15:41.337Z,24.07
2019-02-25T14:18:09.902Z,23.92
2019-02-25T14:20:38.761Z,22.58
2019-02-25T14:23:07.326Z,22.30
2019-02-25T14:25:38.280Z,28.13
2019-02-25T14:28:07.844Z,28.53
2019-02-25T14:30:34.854Z,33.57
2019-02-25T14:33:03.381Z,31.93
2019-02-25T14:35:32.249Z,28.97
2019-02-25T14:38:06.725Z,29.32
2019-02-25T14:40:32.362Z,25.23
2019-02-25T14:43:00.077Z,24.90
2019-02-25T14:45:28.894Z,24.95
2019-02-25T14:47:59.622Z,28.47
2019-02-25T14:50:25.688Z,24.07
2019-02-25T14:52:54.589Z,24.55
2019-02-25T14:55:23.625Z,23.15
2019-02-25T14:57:52.296Z,25.30
2019-02-25T15:00:24.303Z,28.30
2019-02-25T15:05:35.204Z,28.25
2019-02-25T15:08:03.901Z,26.47
2019-02-25T15:10:33.963Z,27.80
2019-02-25T15:13:02.228Z,24.97
2019-02-25T15:15:29.930Z,23.42
2019-02-25T15:17:58.612Z,25.68
2019-02-25T15:20:28.920Z,28.75
2019-02-25T15:22:55.869Z,27.35
2019-02-25T15:25:24.522Z,29.05
2019-02-25T15:27:53.173Z,27.97
2019-02-25T15:30:25.661Z,26.37
2019-02-25T15:32:55.679Z,26.85
2019-02-25T15:35:21.765Z,29.27
2019-02-25T15:37:50.734Z,27.70
2019-02-25T15:40:21.035Z,32.83
2019-02-25T15:42:47.796Z,29.75
2019-02-25T15:45:17.099Z,34.73
2019-02-25T15:47:46.933Z,27.97
2019-02-25T15:50:14.935Z,31.30
2019-02-25T15:52:43.908Z,31.23
2019-02-25T15:55:14.930Z,34.37
2019-02-25T15:57:41.659Z,28.33
2019-02-25T16:00:12.443Z,26.38
2019-02-25T16:02:41.571Z,31.63
2019-02-25T16:05:10.479Z,30.23
2019-02-25T16:07:40.203Z,27.60
2019-02-25T16:10:09.677Z,35.67
2019-02-25T16:12:38.450Z,37.03
2019-02-25T16:15:11.514Z,32.30
2019-02-25T16:17:40.056Z,29.92
2019-02-25T16:20:09.695Z,38.17
2019-02-25T16:22:39.097Z,35.35
2019-02-25T16:25:09.935Z,37.27
2019-02-25T16:27:37.901Z,37.93
2019-02-25T16:30:07.275Z,37.07
2019-02-25T16:32:37.573Z,36.00
2019-02-25T16:35:07.170Z,34.77
2019-02-25T16:37:35.175Z,31.40
2019-02-25T16:40:03.861Z,35.83
2019-02-25T16:42:32.359Z,36.00
2019-02-25T16:45:01.338Z,36.37
2019-02-25T16:47:32.869Z,36.38
2019-02-25T16:49:58.582Z,36.23
2019-02-25T16:52:26.979Z,35.03
2019-02-25T16:54:55.539Z,41.85
2019-02-25T16:57:25.129Z,39.50
2019-02-25T16:59:53.765Z,42.20
2019-02-25T17:02:22.307Z,41.73
2019-02-25T17:04:50.884Z,41.92
2019-02-25T17:07:20.537Z,39.97
2019-02-25T17:09:48.795Z,32.70
2019-02-25T17:12:17.522Z,36.42
2019-02-25T17:14:46.142Z,40.03
2019-02-25T17:17:15.026Z,40.13
2019-02-25T17:19:43.738Z,42.17
2019-02-25T17:22:12.342Z,43.20
2019-02-25T17:24:41.258Z,50.33
2019-02-25T17:27:11.808Z,43.83
2019-02-25T17:29:40.647Z,37.07
2019-02-25T17:32:09.404Z,39.35
2019-02-25T17:34:39.361Z,37.05
2019-02-25T17:37:10.781Z,45.70
2019-02-25T17:39:39.787Z,35.47
2019-02-25T17:42:08.170Z,35.98
2019-02-25T17:44:38.614Z,35.37
2019-02-25T17:47:06.648Z,39.63
2019-02-25T17:49:35.738Z,34.37
2019-02-25T17:52:03.096Z,37.13
2019-02-25T17:54:33.432Z,33.83
2019-02-25T17:57:03.037Z,29.00
2019-02-25T17:59:31.595Z,37.98
2019-02-25T18:01:59.056Z,36.63
2019-02-25T18:04:28.725Z,39.93
2019-02-25T18:07:03.263Z,36.53
2019-02-25T18:09:32.079Z,34.33
2019-02-25T18:12:02.239Z,37.20
2019-02-25T18:14:29.285Z,35.70
2019-02-25T18:16:57.972Z,35.83
2019-02-25T18:19:27.159Z,33.10
2019-02-25T18:21:58.188Z,34.83
2019-02-25T18:24:26.774Z,38.67
2019-02-25T18:26:53.332Z,40.60
2019-02-25T18:29:22.670Z,38.27
2019-02-25T18:31:50.996Z,37.30
2019-02-25T18:34:19.899Z,38.38
2019-02-25T18:36:48.957Z,39.83
2019-02-25T18:39:17.423Z,43.37
2019-02-25T18:41:47.935Z,38.40
2019-02-25T18:44:15.673Z,45.77
2019-02-25T18:46:44.045Z,48.63
2019-02-25T18:49:13.763Z,53.47
2019-02-25T18:51:40.988Z,52.97
2019-02-25T18:54:09.603Z,49.58
2019-02-25T18:56:40.245Z,46.70
2019-02-25T18:59:09.673Z,41.68
2019-02-25T19:01:35.668Z,40.93
2019-02-25T19:04:04.823Z,40.57
2019-02-25T19:09:32.279Z,36.30
2019-02-25T19:12:00.975Z,44.07
2019-02-25T19:14:31.158Z,43.48
2019-02-25T19:16:59.703Z,46.57
2019-02-25T19:19:27.448Z,42.63
2019-02-25T19:21:56.322Z,48.23
2019-02-25T19:24:24.759Z,42.77
2019-02-25T19:26:53.431Z,40.20
2019-02-25T19:29:23.432Z,33.13
2019-02-25T19:31:50.799Z,45.30
2019-02-25T19:34:19.339Z,45.20
2019-02-25T19:36:48.007Z,39.80
2019-02-25T19:39:17.455Z,44.90
2019-02-25T19:41:47.112Z,38.63
2019-02-25T19:44:14.841Z,45.88
2019-02-25T19:46:45.511Z,43.87
2019-02-25T19:49:13.677Z,47.90
2019-02-25T19:51:43.179Z,45.77
2019-02-25T19:54:11.594Z,49.87
2019-02-25T19:56:39.007Z,42.43
2019-02-25T19:59:08.060Z,47.10
2019-02-25T20:01:36.440Z,44.27
2019-02-25T20:04:07.047Z,47.40
2019-02-25T20:06:33.734Z,45.40
2019-02-25T20:09:02.757Z,51.53
2019-02-25T20:11:31.377Z,48.83
2019-02-25T20:14:01.501Z,45.87
2019-02-25T20:16:30.387Z,48.90
2019-02-25T20:18:58.616Z,57.08
2019-02-25T20:21:27.194Z,76.23
2019-02-25T20:23:55.994Z,68.77
2019-02-25T20:26:24.784Z,56.53
2019-02-25T20:28:52.556Z,56.10
2019-02-25T20:31:21.121Z,52.55
2019-02-25T20:33:50.885Z,48.37
2019-02-25T20:36:21.399Z,49.43
2019-02-25T20:38:46.737Z,52.60
2019-02-25T20:41:22.232Z,44.33
2019-02-25T20:43:53.242Z,45.67
2019-02-25T20:46:20.200Z,49.87
2019-02-25T20:48:48.494Z,46.20
2019-02-25T20:51:15.278Z,45.60
2019-02-25T20:53:45.967Z,51.67
2019-02-25T20:56:12.761Z,54.03
2019-02-25T20:58:43.044Z,54.47
2019-02-25T21:01:12.109Z,51.53
2019-02-25T21:03:41.630Z,46.07
2019-02-25T21:06:07.747Z,52.63
2019-02-25T21:08:37.522Z,51.17
2019-02-25T21:11:08.593Z,51.17
2019-02-25T21:13:34.126Z,54.33
2019-02-25T21:16:02.721Z,53.63
2019-02-25T21:18:31.026Z,47.70
2019-02-25T21:20:59.524Z,52.47
2019-02-25T21:23:28.016Z,50.50
2019-02-25T21:25:58.146Z,46.00
2019-02-25T21:28:27.336Z,50.40
2019-02-25T21:30:53.925Z,49.93
2019-02-25T21:33:23.689Z,50.57
2019-02-25T21:35:50.956Z,51.40
2019-02-25T21:38:19.996Z,52.20
2019-02-25T21:40:48.784Z,41.83
2019-02-25T21:43:18.806Z,46.57
2019-02-25T21:45:47.998Z,50.43
2019-02-25T21:48:13.822Z,48.67
2019-02-25T21:50:42.732Z,47.80
2019-02-25T21:53:12.250Z,52.07
2019-02-25T21:55:39.759Z,43.43
2019-02-25T21:58:08.317Z,48.13
2019-02-25T22:00:40.231Z,42.50
2019-02-25T22:03:08.310Z,52.17
2019-02-25T22:05:34.744Z,47.62
2019-02-25T22:08:04.096Z,50.13
2019-02-25T22:10:34.100Z,46.77
2019-02-25T22:13:04.393Z,48.73
2019-02-25T22:15:29.664Z,49.43
2019-02-25T22:17:58.168Z,46.90
2019-02-25T22:20:26.690Z,50.57
2019-02-25T22:22:57.456Z,52.07
2019-02-25T22:25:24.132Z,47.47
2019-02-25T22:27:52.891Z,48.60
2019-02-25T22:30:21.516Z,49.98
2019-02-25T22:32:50.109Z,39.43
2019-02-25T22:35:18.677Z,42.13
2019-02-25T22:37:49.631Z,40.33
2019-02-25T22:40:17.213Z,48.60
2019-02-25T22:42:47.123Z,46.87
2019-02-25T22:45:16.420Z,38.20
2019-02-25T22:47:44.048Z,39.87
2019-02-25T22:50:13.487Z,43.23
2019-02-25T22:52:41.897Z,47.23
2019-02-25T22:55:12.233Z,44.63
2019-02-25T22:57:40.974Z,39.10
2019-02-25T23:00:22.657Z,36.90
2019-02-25T23:02:52.287Z,32.23
2019-02-25T23:05:19.039Z,36.40
2019-02-25T23:07:48.083Z,31.63
2019-02-25T23:10:17.563Z,33.30
2019-02-25T23:12:44.723Z,34.87
2019-02-25T23:15:13.223Z,32.87
2019-02-25T23:17:42.878Z,33.90
2019-02-25T23:20:10.393Z,32.67
2019-02-25T23:22:38.903Z,37.30
2019-02-25T23:25:07.927Z,30.37
2019-02-25T23:27:38.418Z,32.57
2019-02-25T23:30:08.377Z,35.07
2019-02-25T23:32:34.605Z,35.50
2019-02-25T23:35:03.136Z,39.47
2019-02-25T23:37:31.617Z,39.57
2019-02-25T23:40:02.598Z,36.93
2019-02-25T23:42:32.859Z,35.40
2019-02-25T23:44:57.548Z,34.93
2019-02-25T23:47:28.792Z,31.80
2019-02-25T23:49:54.564Z,35.73
2019-02-25T23:52:23.237Z,39.03
2019-02-25T23:54:52.644Z,29.40
2019-02-25T23:58:24.099Z,31.87
